sensor_id;sensor_type;location;lat;lon;timestamp;pressure;altitude;pressure_sealevel;temperature;humidity
56518;BME280;42419;48.760;2.322;2023-04-29T00:02:12;100946.88;;;22.58;45.66
56518;BME280;42419;48.760;2.322;2023-04-29T00:04:38;100937.94;;;22.57;45.84
56518;BME280;42419;48.760;2.322;2023-04-29T00:07:03;100936.03;;;22.59;45.53
56518;BME280;42419;48.760;2.322;2023-04-29T00:09:28;100935.31;;;22.56;45.69
56518;BME280;42419;48.760;2.322;2023-04-29T00:11:54;100936.03;;;22.59;45.78
56518;BME280;42419;48.760;2.322;2023-04-29T00:14:19;100935.09;;;22.60;45.43
56518;BME280;42419;48.760;2.322;2023-04-29T00:16:45;100934.19;;;22.61;45.61
56518;BME280;42419;48.760;2.322;2023-04-29T00:19:11;100935.94;;;22.62;45.42
56518;BME280;42419;48.760;2.322;2023-04-29T00:21:37;100942.13;;;22.63;45.58
56518;BME280;42419;48.760;2.322;2023-04-29T00:24:02;100935.09;;;22.60;45.33
56518;BME280;42419;48.760;2.322;2023-04-29T00:26:27;100924.66;;;22.54;45.46
56518;BME280;42419;48.760;2.322;2023-04-29T00:28:53;100937.56;;;22.65;45.33
56518;BME280;42419;48.760;2.322;2023-04-29T00:31:18;100942.00;;;22.66;45.56
56518;BME280;42419;48.760;2.322;2023-04-29T00:33:43;100915.66;;;22.55;45.34
56518;BME280;42419;48.760;2.322;2023-04-29T00:36:09;100937.44;;;22.68;45.02
56518;BME280;42419;48.760;2.322;2023-04-29T00:38:35;100922.25;;;22.67;45.27
56518;BME280;42419;48.760;2.322;2023-04-29T00:41:01;100928.44;;;22.69;45.20
56518;BME280;42419;48.760;2.322;2023-04-29T00:43:27;100924.88;;;22.68;44.96
56518;BME280;42419;48.760;2.322;2023-04-29T00:45:52;100923.94;;;22.69;45.26
56518;BME280;42419;48.760;2.322;2023-04-29T00:48:18;100920.38;;;22.69;45.06
56518;BME280;42419;48.760;2.322;2023-04-29T00:50:43;100925.69;;;22.70;45.14
56518;BME280;42419;48.760;2.322;2023-04-29T00:53:10;100920.31;;;22.70;44.86
56518;BME280;42419;48.760;2.322;2023-04-29T00:55:39;100928.44;;;22.69;45.08
56518;BME280;42419;48.760;2.322;2023-04-29T00:58:05;100916.09;;;22.65;45.00
56518;BME280;42419;48.760;2.322;2023-04-29T01:00:31;100931.13;;;22.69;44.88
56518;BME280;42419;48.760;2.322;2023-04-29T01:02:57;100935.63;;;22.68;44.94
56518;BME280;42419;48.760;2.322;2023-04-29T01:05:23;100926.63;;;22.69;44.92
56518;BME280;42419;48.760;2.322;2023-04-29T01:08:11;100921.31;;;22.68;44.75
56518;BME280;42419;48.760;2.322;2023-04-29T01:10:48;100910.97;;;22.60;44.64
56518;BME280;42419;48.760;2.322;2023-04-29T01:13:24;100932.00;;;22.69;44.44
56518;BME280;42419;48.760;2.322;2023-04-29T01:16:03;100930.19;;;22.70;44.27
56518;BME280;42419;48.760;2.322;2023-04-29T01:18:40;100910.03;;;22.61;44.55
56518;BME280;42419;48.760;2.322;2023-04-29T01:21:07;100910.97;;;22.60;44.62
56518;BME280;42419;48.760;2.322;2023-04-29T01:23:33;100924.72;;;22.71;44.68
56518;BME280;42419;48.760;2.322;2023-04-29T01:25:58;100928.22;;;22.73;44.70
56518;BME280;42419;48.760;2.322;2023-04-29T01:28:49;100931.72;;;22.75;44.08
56518;BME280;42419;48.760;2.322;2023-04-29T01:31:27;100937.94;;;22.76;44.28
56518;BME280;42419;48.760;2.322;2023-04-29T01:34:09;100929.03;;;22.75;44.05
56518;BME280;42419;48.760;2.322;2023-04-29T01:44:31;100909.22;;;22.78;43.94
56518;BME280;42419;48.760;2.322;2023-04-29T01:46:58;100915.59;;;22.75;44.14
56518;BME280;42419;48.760;2.322;2023-04-29T01:49:28;100907.34;;;22.80;44.22
56518;BME280;42419;48.760;2.322;2023-04-29T01:51:54;100912.59;;;22.81;44.25
56518;BME280;42419;48.760;2.322;2023-04-29T01:54:20;100913.41;;;22.83;44.04
56518;BME280;42419;48.760;2.322;2023-04-29T01:56:46;100907.25;;;22.81;43.97
56518;BME280;42419;48.760;2.322;2023-04-29T01:59:12;100905.44;;;22.82;44.06
56518;BME280;42419;48.760;2.322;2023-04-29T02:01:37;100897.38;;;22.82;44.19
56518;BME280;42419;48.760;2.322;2023-04-29T02:04:03;100902.69;;;22.83;43.90
56518;BME280;42419;48.760;2.322;2023-04-29T02:06:28;100879.09;;;22.71;43.72
56518;BME280;42419;48.760;2.322;2023-04-29T02:08:56;100894.63;;;22.83;43.86
56518;BME280;42419;48.760;2.322;2023-04-29T02:11:21;100907.13;;;22.84;43.93
56518;BME280;42419;48.760;2.322;2023-04-29T02:13:47;100906.16;;;22.85;43.65
56518;BME280;42419;48.760;2.322;2023-04-29T02:16:14;100904.72;;;22.78;43.89
56518;BME280;42419;48.760;2.322;2023-04-29T02:18:39;100911.50;;;22.85;43.60
56518;BME280;42419;48.760;2.322;2023-04-29T02:21:05;100922.25;;;22.85;43.61
56518;BME280;42419;48.760;2.322;2023-04-29T02:23:31;100896.06;;;22.72;43.88
56518;BME280;42419;48.760;2.322;2023-04-29T02:25:57;100915.94;;;22.87;43.85
56518;BME280;42419;48.760;2.322;2023-04-29T02:28:22;100920.38;;;22.88;43.49
56518;BME280;42419;48.760;2.322;2023-04-29T02:30:48;100922.19;;;22.87;43.61
56518;BME280;42419;48.760;2.322;2023-04-29T02:33:14;100915.94;;;22.87;43.63
56518;BME280;42419;48.760;2.322;2023-04-29T02:35:39;100921.25;;;22.88;43.65
56518;BME280;42419;48.760;2.322;2023-04-29T02:38:04;100920.38;;;22.88;43.69
56518;BME280;42419;48.760;2.322;2023-04-29T02:40:30;100923.06;;;22.88;43.38
56518;BME280;42419;48.760;2.322;2023-04-29T02:42:55;100921.31;;;22.87;43.23
56518;BME280;42419;48.760;2.322;2023-04-29T02:45:20;100931.06;;;22.89;43.30
56518;BME280;42419;48.760;2.322;2023-04-29T02:47:46;100923.06;;;22.88;43.30
56518;BME280;42419;48.760;2.322;2023-04-29T02:50:11;100926.53;;;22.90;43.47
56518;BME280;42419;48.760;2.322;2023-04-29T02:52:37;100924.81;;;22.89;43.28
56518;BME280;42419;48.760;2.322;2023-04-29T02:55:02;100928.38;;;22.89;43.42
56518;BME280;42419;48.760;2.322;2023-04-29T02:57:28;100922.13;;;22.89;43.11
56518;BME280;42419;48.760;2.322;2023-04-29T02:59:56;100927.50;;;22.89;43.15
56518;BME280;42419;48.760;2.322;2023-04-29T03:02:22;100927.50;;;22.89;43.11
56518;BME280;42419;48.760;2.322;2023-04-29T03:04:47;100926.63;;;22.88;43.11
56518;BME280;42419;48.760;2.322;2023-04-29T03:07:12;100930.09;;;22.90;43.21
56518;BME280;42419;48.760;2.322;2023-04-29T03:09:38;100928.38;;;22.89;43.34
56518;BME280;42419;48.760;2.322;2023-04-29T03:12:03;100931.84;;;22.91;42.89
56518;BME280;42419;48.760;2.322;2023-04-29T03:14:29;100929.16;;;22.91;42.85
56518;BME280;42419;48.760;2.322;2023-04-29T03:16:54;100941.69;;;22.91;42.95
56518;BME280;42419;48.760;2.322;2023-04-29T03:19:20;100942.56;;;22.91;42.63
56518;BME280;42419;48.760;2.322;2023-04-29T03:21:46;100923.34;;;22.81;42.97
56518;BME280;42419;48.760;2.322;2023-04-29T03:24:11;100939.81;;;22.93;42.77
56518;BME280;42419;48.760;2.322;2023-04-29T03:26:36;100945.19;;;22.93;42.62
56518;BME280;42419;48.760;2.322;2023-04-29T03:29:02;100942.50;;;22.93;43.02
56518;BME280;42419;48.760;2.322;2023-04-29T03:31:27;100939.00;;;22.91;42.76
56518;BME280;42419;48.760;2.322;2023-04-29T03:33:53;100943.28;;;22.95;42.47
56518;BME280;42419;48.760;2.322;2023-04-29T03:36:18;100958.47;;;22.96;42.31
56518;BME280;42419;48.760;2.322;2023-04-29T03:38:43;100946.78;;;22.97;42.48
56518;BME280;42419;48.760;2.322;2023-04-29T03:41:09;100948.44;;;22.99;42.86
56518;BME280;42419;48.760;2.322;2023-04-29T03:43:34;100942.13;;;23.00;42.21
56518;BME280;42419;48.760;2.322;2023-04-29T03:46:00;100952.00;;;23.00;42.53
56518;BME280;42419;48.760;2.322;2023-04-29T03:48:25;100951.84;;;23.03;42.09
56518;BME280;42419;48.760;2.322;2023-04-29T03:50:50;100950.91;;;23.04;42.45
56518;BME280;42419;48.760;2.322;2023-04-29T03:53:16;100949.91;;;23.06;42.32
56518;BME280;42419;48.760;2.322;2023-04-29T03:55:41;100951.72;;;23.06;42.38
56518;BME280;42419;48.760;2.322;2023-04-29T03:58:07;100955.19;;;23.08;42.30
56518;BME280;42419;48.760;2.322;2023-04-29T04:00:32;100959.63;;;23.09;42.10
56518;BME280;42419;48.760;2.322;2023-04-29T04:02:58;100959.56;;;23.10;42.00
56518;BME280;42419;48.760;2.322;2023-04-29T04:05:24;100975.66;;;23.10;42.15
56518;BME280;42419;48.760;2.322;2023-04-29T04:07:52;100969.34;;;23.11;41.94
56518;BME280;42419;48.760;2.322;2023-04-29T04:10:18;100965.78;;;23.11;41.84
56518;BME280;42419;48.760;2.322;2023-04-29T04:12:43;100967.50;;;23.12;42.06
56518;BME280;42419;48.760;2.322;2023-04-29T04:15:10;100969.25;;;23.13;41.94
56518;BME280;42419;48.760;2.322;2023-04-29T04:17:35;100960.25;;;23.14;41.60
56518;BME280;42419;48.760;2.322;2023-04-29T04:20:00;100943.00;;;23.01;41.60
56518;BME280;42419;48.760;2.322;2023-04-29T04:22:26;100968.25;;;23.15;41.54
56518;BME280;42419;48.760;2.322;2023-04-29T04:24:53;100969.09;;;23.16;41.54
56518;BME280;42419;48.760;2.322;2023-04-29T04:27:19;100958.59;;;23.11;41.81
56518;BME280;42419;48.760;2.322;2023-04-29T04:29:44;100965.47;;;23.17;41.44
56518;BME280;42419;48.760;2.322;2023-04-29T04:32:09;100963.66;;;23.17;41.65
56518;BME280;42419;48.760;2.322;2023-04-29T04:34:35;100973.47;;;23.18;41.76
56518;BME280;42419;48.760;2.322;2023-04-29T04:37:03;100971.66;;;23.19;41.65
56518;BME280;42419;48.760;2.322;2023-04-29T04:39:28;100947.28;;;23.05;41.68
56518;BME280;42419;48.760;2.322;2023-04-29T04:41:54;100983.22;;;23.21;41.42
56518;BME280;42419;48.760;2.322;2023-04-29T04:44:19;100978.72;;;23.21;41.24
56518;BME280;42419;48.760;2.322;2023-04-29T04:46:45;100988.47;;;23.24;41.15
56518;BME280;42419;48.760;2.322;2023-04-29T04:49:10;100994.72;;;23.24;41.39
56518;BME280;42419;48.760;2.322;2023-04-29T04:51:36;100978.19;;;23.13;41.57
56518;BME280;42419;48.760;2.322;2023-04-29T04:54:01;101000.84;;;23.26;41.17
56518;BME280;42419;48.760;2.322;2023-04-29T04:56:26;101002.66;;;23.26;41.19
56518;BME280;42419;48.760;2.322;2023-04-29T04:58:52;101003.53;;;23.26;41.50
56518;BME280;42419;48.760;2.322;2023-04-29T05:01:17;101014.28;;;23.26;40.97
56518;BME280;42419;48.760;2.322;2023-04-29T05:03:42;100990.75;;;23.13;41.01
56518;BME280;42419;48.760;2.322;2023-04-29T05:06:08;101012.53;;;23.25;41.35
56518;BME280;42419;48.760;2.322;2023-04-29T05:08:33;101021.34;;;23.29;40.80
56518;BME280;42419;48.760;2.322;2023-04-29T05:10:58;101016.44;;;23.18;40.20
56518;BME280;42419;48.760;2.322;2023-04-29T05:13:23;101011.38;;;23.12;40.99
56518;BME280;42419;48.760;2.322;2023-04-29T05:15:52;101038.69;;;23.22;41.28
56518;BME280;42419;48.760;2.322;2023-04-29T05:18:17;101015.84;;;23.12;41.41
56518;BME280;42419;48.760;2.322;2023-04-29T05:20:43;101038.63;;;23.23;41.61
56518;BME280;42419;48.760;2.322;2023-04-29T05:23:08;101043.06;;;23.24;41.65
56518;BME280;42419;48.760;2.322;2023-04-29T05:25:34;101045.66;;;23.26;41.36
56518;BME280;42419;48.760;2.322;2023-04-29T05:28:01;101030.88;;;23.16;41.48
56518;BME280;42419;48.760;2.322;2023-04-29T05:30:26;101053.66;;;23.27;41.81
56518;BME280;42419;48.760;2.322;2023-04-29T05:32:52;101057.13;;;23.29;41.93
56518;BME280;42419;48.760;2.322;2023-04-29T05:35:17;101051.19;;;23.23;41.69
56518;BME280;42419;48.760;2.322;2023-04-29T05:37:42;101063.25;;;23.33;41.37
56518;BME280;42419;48.760;2.322;2023-04-29T05:40:08;101073.03;;;23.34;41.46
56518;BME280;42419;48.760;2.322;2023-04-29T05:42:34;101077.56;;;23.34;41.59
56518;BME280;42419;48.760;2.322;2023-04-29T05:44:59;101075.72;;;23.34;41.67
56518;BME280;42419;48.760;2.322;2023-04-29T05:47:25;101045.28;;;23.15;41.46
56518;BME280;42419;48.760;2.322;2023-04-29T05:49:50;101079.28;;;23.35;41.30
56518;BME280;42419;48.760;2.322;2023-04-29T05:52:16;101072.31;;;23.31;41.04
56518;BME280;42419;48.760;2.322;2023-04-29T05:54:41;101079.22;;;23.36;40.88
56518;BME280;42419;48.760;2.322;2023-04-29T05:57:06;101086.34;;;23.37;41.18
56518;BME280;42419;48.760;2.322;2023-04-29T05:59:33;101088.94;;;23.39;40.75
56518;BME280;42419;48.760;2.322;2023-04-29T06:01:59;101084.38;;;23.41;41.01
56518;BME280;42419;48.760;2.322;2023-04-29T06:04:25;101085.25;;;23.41;40.94
56518;BME280;42419;48.760;2.322;2023-04-29T06:06:51;101092.38;;;23.42;41.10
56518;BME280;42419;48.760;2.322;2023-04-29T06:09:17;101101.22;;;23.44;40.92
56518;BME280;42419;48.760;2.322;2023-04-29T06:11:44;101101.94;;;23.48;41.17
56518;BME280;42419;48.760;2.322;2023-04-29T06:14:10;101098.31;;;23.49;40.91
56518;BME280;42419;48.760;2.322;2023-04-29T06:16:35;101097.66;;;23.44;40.98
56518;BME280;42419;48.760;2.322;2023-04-29T06:19:01;101105.38;;;23.51;40.87
56518;BME280;42419;48.760;2.322;2023-04-29T06:21:26;101109.78;;;23.52;40.95
56518;BME280;42419;48.760;2.322;2023-04-29T06:23:52;101080.59;;;23.45;40.74
56518;BME280;42419;48.760;2.322;2023-04-29T06:26:18;101101.59;;;23.55;40.53
56518;BME280;42419;48.760;2.322;2023-04-29T06:28:45;101111.34;;;23.56;40.94
56518;BME280;42419;48.760;2.322;2023-04-29T06:31:11;101110.44;;;23.57;40.68
56518;BME280;42419;48.760;2.322;2023-04-29T06:33:36;101100.94;;;23.50;40.75
56518;BME280;42419;48.760;2.322;2023-04-29T06:36:02;101111.13;;;23.61;40.21
56518;BME280;42419;48.760;2.322;2023-04-29T06:38:27;101099.13;;;23.51;40.53
56518;BME280;42419;48.760;2.322;2023-04-29T06:40:52;101121.75;;;23.64;40.21
56518;BME280;42419;48.760;2.322;2023-04-29T06:43:18;101103.44;;;23.53;40.56
56518;BME280;42419;48.760;2.322;2023-04-29T06:45:46;101115.44;;;23.65;40.09
56518;BME280;42419;48.760;2.322;2023-04-29T06:48:11;101124.34;;;23.65;40.06
56518;BME280;42419;48.760;2.322;2023-04-29T06:50:37;101121.59;;;23.67;40.10
56518;BME280;42419;48.760;2.322;2023-04-29T06:53:02;101124.22;;;23.68;40.30
56518;BME280;42419;48.760;2.322;2023-04-29T06:55:27;101123.25;;;23.69;40.46
56518;BME280;42419;48.760;2.322;2023-04-29T06:57:53;101107.63;;;23.60;39.98
56518;BME280;42419;48.760;2.322;2023-04-29T07:00:18;101121.38;;;23.71;39.98
56518;BME280;42419;48.760;2.322;2023-04-29T07:02:45;101126.81;;;23.70;40.02
56518;BME280;42419;48.760;2.322;2023-04-29T07:05:10;101120.88;;;23.63;40.13
56518;BME280;42419;48.760;2.322;2023-04-29T07:07:36;101134.53;;;23.78;39.52
56518;BME280;42419;48.760;2.322;2023-04-29T07:10:01;101136.13;;;23.82;39.33
56518;BME280;42419;48.760;2.322;2023-04-29T07:12:26;101144.09;;;23.83;40.25
56518;BME280;42419;48.760;2.322;2023-04-29T07:14:52;101144.97;;;23.84;39.82
56518;BME280;42419;48.760;2.322;2023-04-29T07:17:17;101145.84;;;23.84;40.09
56518;BME280;42419;48.760;2.322;2023-04-29T07:19:42;101123.03;;;23.74;39.95
56518;BME280;42419;48.760;2.322;2023-04-29T07:22:08;101156.59;;;23.86;39.64
56518;BME280;42419;48.760;2.322;2023-04-29T07:24:33;101154.03;;;23.83;39.87
56518;BME280;42419;48.760;2.322;2023-04-29T07:26:59;101153.81;;;23.87;39.49
56518;BME280;42419;48.760;2.322;2023-04-29T07:29:24;101151.03;;;23.89;39.56
56518;BME280;42419;48.760;2.322;2023-04-29T07:31:49;101153.72;;;23.89;39.95
56518;BME280;42419;48.760;2.322;2023-04-29T07:34:14;101156.59;;;23.84;39.87
56518;BME280;42419;48.760;2.322;2023-04-29T07:36:40;101162.75;;;23.88;40.15
56518;BME280;42419;48.760;2.322;2023-04-29T07:39:05;101155.19;;;23.77;39.93
56518;BME280;42419;48.760;2.322;2023-04-29T07:41:30;101171.63;;;23.90;40.63
56518;BME280;42419;48.760;2.322;2023-04-29T07:43:56;101166.19;;;23.91;41.04
56518;BME280;42419;48.760;2.322;2023-04-29T07:46:21;101168.69;;;23.94;40.64
56518;BME280;42419;48.760;2.322;2023-04-29T07:48:47;101168.66;;;23.96;41.07
56518;BME280;42419;48.760;2.322;2023-04-29T07:51:13;101168.53;;;23.97;40.82
56518;BME280;42419;48.760;2.322;2023-04-29T07:53:39;101177.50;;;23.98;41.50
56518;BME280;42419;48.760;2.322;2023-04-29T07:56:06;101173.88;;;23.99;41.14
56518;BME280;42419;48.760;2.322;2023-04-29T07:58:31;101177.44;;;23.99;40.66
56518;BME280;42419;48.760;2.322;2023-04-29T08:00:57;101188.19;;;23.99;40.69
56518;BME280;42419;48.760;2.322;2023-04-29T08:03:28;101177.31;;;24.01;40.90
56518;BME280;42419;48.760;2.322;2023-04-29T08:05:54;101173.94;;;23.97;40.57
56518;BME280;42419;48.760;2.322;2023-04-29T08:08:20;101182.72;;;24.01;40.67
56518;BME280;42419;48.760;2.322;2023-04-29T08:10:45;101171.09;;;24.00;40.42
56518;BME280;42419;48.760;2.322;2023-04-29T08:13:11;101172.91;;;24.00;40.63
56518;BME280;42419;48.760;2.322;2023-04-29T08:15:36;101179.25;;;23.99;40.40
56518;BME280;42419;48.760;2.322;2023-04-29T08:18:01;101181.06;;;23.98;40.64
56518;BME280;42419;48.760;2.322;2023-04-29T08:20:27;101167.13;;;23.90;40.50
56518;BME280;42419;48.760;2.322;2023-04-29T08:22:52;101162.94;;;23.83;40.51
56518;BME280;42419;48.760;2.322;2023-04-29T08:25:18;101187.69;;;23.91;40.71
56518;BME280;42419;48.760;2.322;2023-04-29T08:27:43;101184.13;;;23.91;40.30
56518;BME280;42419;48.760;2.322;2023-04-29T08:30:10;101188.47;;;23.93;40.22
56518;BME280;42419;48.760;2.322;2023-04-29T08:32:35;101179.84;;;23.87;40.14
56518;BME280;42419;48.760;2.322;2023-04-29T08:35:01;101195.66;;;23.93;40.35
56518;BME280;42419;48.760;2.322;2023-04-29T08:37:26;101162.31;;;23.78;40.22
56518;BME280;42419;48.760;2.322;2023-04-29T08:39:51;101190.28;;;23.93;40.02
56518;BME280;42419;48.760;2.322;2023-04-29T08:42:20;101179.94;;;23.84;40.37
56518;BME280;42419;48.760;2.322;2023-04-29T08:44:54;101199.38;;;23.90;40.31
56518;BME280;42419;48.760;2.322;2023-04-29T08:47:19;101191.31;;;23.90;40.22
56518;BME280;42419;48.760;2.322;2023-04-29T08:49:45;101196.75;;;23.89;40.06
56518;BME280;42419;48.760;2.322;2023-04-29T08:52:10;101195.00;;;23.88;39.78
56518;BME280;42419;48.760;2.322;2023-04-29T08:54:36;101190.84;;;23.81;39.74
56518;BME280;42419;48.760;2.322;2023-04-29T08:57:02;101196.91;;;23.86;40.06
56518;BME280;42419;48.760;2.322;2023-04-29T08:59:29;101206.75;;;23.87;40.34
56518;BME280;42419;48.760;2.322;2023-04-29T09:01:55;101203.19;;;23.86;39.97
56518;BME280;42419;48.760;2.322;2023-04-29T09:04:29;101208.47;;;23.88;40.33
56518;BME280;42419;48.760;2.322;2023-04-29T09:06:57;101189.25;;;23.77;39.85
56518;BME280;42419;48.760;2.322;2023-04-29T09:09:24;101197.81;;;23.85;40.11
56518;BME280;42419;48.760;2.322;2023-04-29T09:11:50;101205.00;;;23.86;40.15
56518;BME280;42419;48.760;2.322;2023-04-29T09:14:15;101211.25;;;23.86;39.92
56518;BME280;42419;48.760;2.322;2023-04-29T09:16:40;101214.88;;;23.85;40.17
56518;BME280;42419;48.760;2.322;2023-04-29T09:19:06;101217.56;;;23.85;40.32
56518;BME280;42419;48.760;2.322;2023-04-29T09:21:31;101224.72;;;23.85;40.07
56518;BME280;42419;48.760;2.322;2023-04-29T09:23:59;101212.22;;;23.84;39.55
56518;BME280;42419;48.760;2.322;2023-04-29T09:26:25;101219.41;;;23.83;39.82
56518;BME280;42419;48.760;2.322;2023-04-29T09:29:11;101224.72;;;23.85;39.92
56518;BME280;42419;48.760;2.322;2023-04-29T09:31:42;101229.31;;;23.83;39.81
56518;BME280;42419;48.760;2.322;2023-04-29T09:34:08;101216.81;;;23.82;40.06
56518;BME280;42419;48.760;2.322;2023-04-29T09:36:46;101226.69;;;23.81;40.01
56518;BME280;42419;48.760;2.322;2023-04-29T09:44:15;101223.28;;;23.78;40.16
56518;BME280;42419;48.760;2.322;2023-04-29T09:46:41;101216.16;;;23.77;40.28
56518;BME280;42419;48.760;2.322;2023-04-29T09:49:24;101209.25;;;23.71;40.18
56518;BME280;42419;48.760;2.322;2023-04-29T09:51:57;101166.00;;;23.38;39.91
56518;BME280;42419;48.760;2.322;2023-04-29T09:54:25;101223.84;;;23.65;39.96
56518;BME280;42419;48.760;2.322;2023-04-29T09:56:52;101238.03;;;23.69;39.82
56518;BME280;42419;48.760;2.322;2023-04-29T09:59:18;101221.44;;;23.59;39.77
56518;BME280;42419;48.760;2.322;2023-04-29T10:01:47;101225.13;;;23.57;40.01
56518;BME280;42419;48.760;2.322;2023-04-29T10:04:14;101231.34;;;23.59;40.09
56518;BME280;42419;48.760;2.322;2023-04-29T10:06:40;101235.78;;;23.60;39.55
56518;BME280;42419;48.760;2.322;2023-04-29T10:09:07;101228.69;;;23.57;39.96
56518;BME280;42419;48.760;2.322;2023-04-29T10:11:35;101229.63;;;23.56;39.78
56518;BME280;42419;48.760;2.322;2023-04-29T10:14:02;101227.91;;;23.55;40.36
56518;BME280;42419;48.760;2.322;2023-04-29T10:16:30;101226.16;;;23.54;40.50
56518;BME280;42419;48.760;2.322;2023-04-29T10:19:03;101230.66;;;23.54;40.23
56518;BME280;42419;48.760;2.322;2023-04-29T10:21:29;101218.09;;;23.54;40.74
56518;BME280;42419;48.760;2.322;2023-04-29T10:24:00;101231.47;;;23.56;40.50
56518;BME280;42419;48.760;2.322;2023-04-29T10:26:27;101179.44;;;23.38;40.36
56518;BME280;42419;48.760;2.322;2023-04-29T10:28:58;101221.44;;;23.59;39.94
56518;BME280;42419;48.760;2.322;2023-04-29T10:31:27;101218.66;;;23.61;40.29
56518;BME280;42419;48.760;2.322;2023-04-29T10:33:57;101222.22;;;23.61;40.55
56518;BME280;42419;48.760;2.322;2023-04-29T10:36:27;101225.00;;;23.60;40.59
56518;BME280;42419;48.760;2.322;2023-04-29T10:39:00;101228.69;;;23.57;41.32
56518;BME280;42419;48.760;2.322;2023-04-29T10:41:32;101235.88;;;23.57;41.08
56518;BME280;42419;48.760;2.322;2023-04-29T10:43:58;101232.31;;;23.56;41.63
56518;BME280;42419;48.760;2.322;2023-04-29T10:46:25;101235.88;;;23.57;41.58
56518;BME280;42419;48.760;2.322;2023-04-29T10:49:00;101234.91;;;23.59;41.58
56518;BME280;42419;48.760;2.322;2023-04-29T10:51:30;101234.03;;;23.59;42.33
56518;BME280;42419;48.760;2.322;2023-04-29T10:56:52;101233.97;;;23.60;41.31
56518;BME280;42419;48.760;2.322;2023-04-29T10:59:22;101238.47;;;23.60;42.04
56518;BME280;42419;48.760;2.322;2023-04-29T11:02:06;101238.47;;;23.60;41.98
56518;BME280;42419;48.760;2.322;2023-04-29T11:04:32;101230.28;;;23.61;42.08
56518;BME280;42419;48.760;2.322;2023-04-29T11:06:57;101234.91;;;23.59;42.12
56518;BME280;42419;48.760;2.322;2023-04-29T11:09:30;101241.94;;;23.62;42.24
56518;BME280;42419;48.760;2.322;2023-04-29T11:12:04;101185.25;;;23.29;42.75
56518;BME280;42419;48.760;2.322;2023-04-29T11:14:37;101241.16;;;23.60;42.49
56518;BME280;42419;48.760;2.322;2023-04-29T11:17:11;101231.34;;;23.59;41.89
56518;BME280;42419;48.760;2.322;2023-04-29T11:19:41;101234.94;;;23.58;42.16
56518;BME280;42419;48.760;2.322;2023-04-29T11:22:13;101235.81;;;23.58;42.31
56518;BME280;42419;48.760;2.322;2023-04-29T11:27:18;101244.81;;;23.57;42.24
56518;BME280;42419;48.760;2.322;2023-04-29T11:29:48;101249.47;;;23.54;41.63
56518;BME280;42419;48.760;2.322;2023-04-29T11:32:14;101255.72;;;23.54;42.25
56518;BME280;42419;48.760;2.322;2023-04-29T11:34:39;101252.22;;;23.52;41.94
56518;BME280;42419;48.760;2.322;2023-04-29T11:37:05;101254.03;;;23.52;42.16
56518;BME280;42419;48.760;2.322;2023-04-29T11:39:36;101243.38;;;23.50;42.00
56518;BME280;42419;48.760;2.322;2023-04-29T11:42:03;101249.63;;;23.51;41.94
56518;BME280;42419;48.760;2.322;2023-04-29T11:44:28;101242.66;;;23.47;41.88
56518;BME280;42419;48.760;2.322;2023-04-29T11:47:03;101242.66;;;23.47;41.86
56518;BME280;42419;48.760;2.322;2023-04-29T11:49:30;101247.94;;;23.48;42.20
56518;BME280;42419;48.760;2.322;2023-04-29T11:51:56;101239.16;;;23.45;42.05
56518;BME280;42419;48.760;2.322;2023-04-29T11:54:24;101239.97;;;23.47;41.79
56518;BME280;42419;48.760;2.322;2023-04-29T11:56:52;101246.19;;;23.47;42.28
56518;BME280;42419;48.760;2.322;2023-04-29T11:59:18;101233.94;;;23.42;42.32
56518;BME280;42419;48.760;2.322;2023-04-29T12:01:43;101233.63;;;23.48;42.27
56518;BME280;42419;48.760;2.322;2023-04-29T12:04:09;101214.50;;;23.35;42.19
56518;BME280;42419;48.760;2.322;2023-04-29T12:06:34;101224.91;;;23.43;42.64
56518;BME280;42419;48.760;2.322;2023-04-29T12:09:00;101227.59;;;23.43;42.12
56518;BME280;42419;48.760;2.322;2023-04-29T12:11:25;101223.38;;;23.37;41.44
56518;BME280;42419;48.760;2.322;2023-04-29T12:13:51;101233.97;;;23.40;40.80
56518;BME280;42419;48.760;2.322;2023-04-29T12:16:16;101227.94;;;23.35;40.57
56518;BME280;42419;48.760;2.322;2023-04-29T12:18:42;101226.50;;;23.28;40.29
56518;BME280;42419;48.760;2.322;2023-04-29T12:21:07;101224.59;;;23.30;40.72
56518;BME280;42419;48.760;2.322;2023-04-29T12:23:34;101230.78;;;23.32;41.20
56518;BME280;42419;48.760;2.322;2023-04-29T12:25:59;101228.16;;;23.31;41.20
56518;BME280;42419;48.760;2.322;2023-04-29T12:28:26;101208.00;;;23.20;41.77
56518;BME280;42419;48.760;2.322;2023-04-29T12:30:52;101214.13;;;23.24;41.59
56518;BME280;42419;48.760;2.322;2023-04-29T12:33:26;101197.38;;;23.17;41.56
56518;BME280;42419;48.760;2.322;2023-04-29T12:35:53;101228.81;;;23.36;41.85
56518;BME280;42419;48.760;2.322;2023-04-29T12:38:22;101217.59;;;23.26;42.11
56518;BME280;42419;48.760;2.322;2023-04-29T12:40:48;101233.25;;;23.37;42.08
56518;BME280;42419;48.760;2.322;2023-04-29T12:43:15;101204.50;;;23.18;41.78
56518;BME280;42419;48.760;2.322;2023-04-29T12:45:40;101230.63;;;23.35;41.91
56518;BME280;42419;48.760;2.322;2023-04-29T12:48:05;101233.19;;;23.38;41.79
56518;BME280;42419;48.760;2.322;2023-04-29T12:50:36;101225.47;;;23.31;42.21
56518;BME280;42419;48.760;2.322;2023-04-29T12:53:07;101236.00;;;23.35;42.80
56518;BME280;42419;48.760;2.322;2023-04-29T12:55:34;101213.31;;;23.22;42.20
56518;BME280;42419;48.760;2.322;2023-04-29T12:58:00;101239.50;;;23.37;42.10
56518;BME280;42419;48.760;2.322;2023-04-29T13:00:26;101227.94;;;23.35;42.61
56518;BME280;42419;48.760;2.322;2023-04-29T13:02:51;101233.41;;;23.34;42.48
56518;BME280;42419;48.760;2.322;2023-04-29T13:05:17;101225.34;;;23.34;42.82
56518;BME280;42419;48.760;2.322;2023-04-29T13:07:42;101229.84;;;23.33;42.70